Trappe, Pennsylvania
Current Conditions -  °F | °C
As of 9:54 AM on Friday 19 Dec 2014 (Local Time) from KPTW Reporting Station
Overcast Overcast  
Wind Chill: 28°   Ceiling: 3100
Heat Index: 36°   Visibility: 10mi
Dew Point: 25°   Wind: 10mph
Humidity: 64%   Direction: 320°NW
Pressure: 30.1"   Gusts: NA
Location:  40.1903°N, 75.4384°W
Report Text: KPTW 191454Z AUTO 32009KT 10SM OVC031 02/M04 A3010 RMK AO2 SLP194 T00221039 53015
Loading
Personal Weather Stations






























Interactive Weather Map New forecast layout! Learn more

10-Day Weather Forecast

Advertisements
Track Severe Weather on mobile